Time;durP1;ratioP1;P1;durP2;ratioP2;P2;SDS_P1;SDS_P2;PMS_P1;PMS_P2;Temp;Humidity;BMP_temperature;BMP_pressure;BME280_temperature;BME280_humidity;BME280_pressure;Samples;Min_cycle;Max_cycle;Signal;HPM_P1;HPM_P2
2023/12/18 00:00:04;;;;;;;13.25;6.95;;;;;;;;;;5044344;28;20040;-86
2023/12/18 00:02:29;;;;;;;10.35;7.07;;;;;;;;;;5042075;28;20024;-86
2023/12/18 00:04:54;;;;;;;12.63;7.32;;;;;;;;;;5061199;28;20057;-91
2023/12/18 00:07:20;;;;;;;12.02;6.95;;;;;;;;;;5058073;28;20023;-88
2023/12/18 00:09:45;;;;;;;12.43;6.53;;;;;;;;;;5051088;28;20025;-86
2023/12/18 00:12:10;;;;;;;14.07;7.07;;;;;;;;;;5054965;28;20028;-87
2023/12/18 00:14:36;;;;;;;12.00;6.65;;;;;;;;;;5054305;28;20029;-87
2023/12/18 00:17:01;;;;;;;7.38;5.47;;;;;;;;;;5054627;28;20031;-88
2023/12/18 00:19:27;;;;;;;9.98;4.90;;;;;;;;;;5053833;28;20025;-89
2023/12/18 00:21:52;;;;;;;9.35;5.50;;;;;;;;;;5055078;28;20049;-86
2023/12/18 00:24:18;;;;;;;9.18;6.00;;;;;;;;;;5054732;28;20082;-86
2023/12/18 00:26:44;;;;;;;10.85;5.80;;;;;;;;;;5055287;28;20479;-87
2023/12/18 00:29:09;;;;;;;11.70;7.00;;;;;;;;;;5055851;28;20051;-89
2023/12/18 00:31:34;;;;;;;8.23;6.15;;;;;;;;;;5037208;28;20083;-87
2023/12/18 00:34:00;;;;;;;8.00;5.32;;;;;;;;;;5036350;28;20025;-87
2023/12/18 00:36:26;;;;;;;8.40;5.80;;;;;;;;;;5036335;28;20043;-88
2023/12/18 00:38:51;;;;;;;12.25;5.97;;;;;;;;;;5046470;28;20051;-86
2023/12/18 00:41:18;;;;;;;9.20;5.78;;;;;;;;;;5052143;28;20154;-88
2023/12/18 00:43:43;;;;;;;10.63;6.63;;;;;;;;;;5061458;28;20025;-87
2023/12/18 00:46:09;;;;;;;12.50;6.35;;;;;;;;;;5044478;28;20063;-85
2023/12/18 00:48:34;;;;;;;11.57;6.85;;;;;;;;;;5054954;28;20336;-89
2023/12/18 00:50:59;;;;;;;10.88;6.20;;;;;;;;;;5048505;28;20665;-87
2023/12/18 00:53:24;;;;;;;10.07;6.65;;;;;;;;;;5047050;28;20028;-90
2023/12/18 00:55:50;;;;;;;9.77;5.47;;;;;;;;;;5062909;28;20061;-90
2023/12/18 00:58:15;;;;;;;8.48;5.50;;;;;;;;;;5046072;28;20052;-86
2023/12/18 01:00:40;;;;;;;11.30;5.88;;;;;;;;;;5045257;28;20044;-86
2023/12/18 01:03:06;;;;;;;14.52;6.15;;;;;;;;;;5042022;28;20029;-88
2023/12/18 01:05:31;;;;;;;10.48;6.50;;;;;;;;;;5063522;28;20514;-86
2023/12/18 01:07:57;;;;;;;10.02;5.43;;;;;;;;;;5042982;28;20116;-87
2023/12/18 01:10:23;;;;;;;11.05;6.28;;;;;;;;;;5060537;28;20476;-87
2023/12/18 01:12:48;;;;;;;11.77;6.53;;;;;;;;;;5035688;28;20036;-87
2023/12/18 01:15:13;;;;;;;9.63;5.68;;;;;;;;;;5060384;28;20371;-87
2023/12/18 01:17:39;;;;;;;8.90;6.43;;;;;;;;;;5039046;28;20049;-86
2023/12/18 01:20:06;;;;;;;13.02;5.97;;;;;;;;;;5048854;28;20082;-86
2023/12/18 01:22:31;;;;;;;14.93;7.10;;;;;;;;;;5063591;28;20035;-88
2023/12/18 01:24:56;;;;;;;10.32;6.47;;;;;;;;;;5063422;28;20021;-89
2023/12/18 01:27:22;;;;;;;11.07;5.60;;;;;;;;;;5051085;28;20063;-87
2023/12/18 01:29:47;;;;;;;9.43;5.47;;;;;;;;;;5041059;28;20017;-87
2023/12/18 01:32:12;;;;;;;11.43;6.63;;;;;;;;;;5047804;28;20117;-86
2023/12/18 01:34:38;;;;;;;9.50;5.82;;;;;;;;;;5037927;28;20064;-87
2023/12/18 01:37:05;;;;;;;12.43;4.57;;;;;;;;;;5064766;28;20029;-87
2023/12/18 01:39:31;;;;;;;9.30;5.32;;;;;;;;;;5061158;28;20489;-87
2023/12/18 01:41:57;;;;;;;9.85;6.18;;;;;;;;;;5057658;28;20391;-87
2023/12/18 01:44:22;;;;;;;8.93;5.82;;;;;;;;;;5043136;28;20490;-87
2023/12/18 01:46:47;;;;;;;10.80;6.15;;;;;;;;;;5054762;28;20029;-86
2023/12/18 01:49:13;;;;;;;8.50;5.63;;;;;;;;;;5046531;28;20025;-86
2023/12/18 01:51:39;;;;;;;10.55;5.72;;;;;;;;;;5057819;28;20024;-88
2023/12/18 01:54:05;;;;;;;13.10;6.60;;;;;;;;;;5049750;28;20025;-88
2023/12/18 01:56:32;;;;;;;7.65;5.57;;;;;;;;;;5039215;28;20021;-88
2023/12/18 01:58:59;;;;;;;5.07;4.05;;;;;;;;;;5057461;28;20032;-89
2023/12/18 02:01:26;;;;;;;7.97;5.60;;;;;;;;;;5039529;28;20017;-86
2023/12/18 02:03:52;;;;;;;14.25;5.93;;;;;;;;;;5039179;28;20032;-87
2023/12/18 02:06:18;;;;;;;10.15;6.47;;;;;;;;;;5038116;28;20060;-86
2023/12/18 02:08:44;;;;;;;9.10;5.63;;;;;;;;;;5047755;28;20032;-86
2023/12/18 02:11:10;;;;;;;17.20;6.32;;;;;;;;;;5037643;28;20068;-87
2023/12/18 02:13:35;;;;;;;11.07;6.05;;;;;;;;;;5056521;28;20021;-88
2023/12/18 02:16:00;;;;;;;7.72;5.63;;;;;;;;;;5038040;28;20045;-86
2023/12/18 02:18:25;;;;;;;8.30;5.65;;;;;;;;;;5056266;28;20035;-88
2023/12/18 02:20:51;;;;;;;11.55;6.22;;;;;;;;;;5037546;28;20032;-88
2023/12/18 02:23:16;;;;;;;14.00;5.40;;;;;;;;;;5036951;28;20033;-88
2023/12/18 02:25:42;;;;;;;8.23;5.35;;;;;;;;;;5047021;28;20029;-86
2023/12/18 02:28:10;;;;;;;5.30;4.55;;;;;;;;;;5055570;28;20360;-86
2023/12/18 02:30:35;;;;;;;6.97;4.35;;;;;;;;;;5042977;28;20395;-87
2023/12/18 02:33:01;;;;;;;9.35;5.97;;;;;;;;;;5040332;28;20475;-86
2023/12/18 02:35:26;;;;;;;6.80;5.22;;;;;;;;;;5048064;28;20017;-91
2023/12/18 02:37:51;;;;;;;10.75;5.68;;;;;;;;;;5056938;28;20029;-86
2023/12/18 02:40:17;;;;;;;8.45;5.75;;;;;;;;;;5043021;28;20021;-89
2023/12/18 02:42:42;;;;;;;11.35;6.72;;;;;;;;;;5037853;28;20023;-88
2023/12/18 02:45:08;;;;;;;8.85;5.97;;;;;;;;;;5039867;28;20025;-89
2023/12/18 02:47:34;;;;;;;9.10;5.85;;;;;;;;;;5058927;28;20036;-88
2023/12/18 02:49:59;;;;;;;8.50;5.35;;;;;;;;;;5040829;28;20052;-89
2023/12/18 02:52:24;;;;;;;11.57;5.95;;;;;;;;;;5040101;28;20017;-88
2023/12/18 02:54:50;;;;;;;7.05;4.85;;;;;;;;;;5057289;28;20040;-87
2023/12/18 02:57:15;;;;;;;9.18;6.68;;;;;;;;;;5038117;28;20048;-88
2023/12/18 02:59:40;;;;;;;7.97;5.18;;;;;;;;;;5037835;28;20017;-88
2023/12/18 03:02:06;;;;;;;6.82;4.93;;;;;;;;;;5038814;28;20028;-87
2023/12/18 03:04:31;;;;;;;5.40;4.20;;;;;;;;;;5057573;28;20052;-86
2023/12/18 03:06:56;;;;;;;8.13;4.95;;;;;;;;;;5042830;28;20043;-86
2023/12/18 03:09:22;;;;;;;5.85;4.60;;;;;;;;;;5037416;28;20394;-88
2023/12/18 03:11:48;;;;;;;7.10;5.55;;;;;;;;;;5042566;28;20059;-87
2023/12/18 03:14:13;;;;;;;7.15;5.20;;;;;;;;;;5055944;28;20037;-89
2023/12/18 03:16:39;;;;;;;9.90;5.85;;;;;;;;;;5055593;28;20048;-87
2023/12/18 03:19:04;;;;;;;10.63;5.68;;;;;;;;;;5055500;28;20025;-87
2023/12/18 03:21:30;;;;;;;5.80;4.00;;;;;;;;;;5055851;28;20020;-88
2023/12/18 03:23:56;;;;;;;8.48;4.40;;;;;;;;;;5055357;28;20047;-86
2023/12/18 03:26:21;;;;;;;9.02;4.88;;;;;;;;;;5037254;28;20487;-87
2023/12/18 03:28:46;;;;;;;6.80;4.10;;;;;;;;;;5037292;28;20117;-86
2023/12/18 03:31:12;;;;;;;10.50;5.25;;;;;;;;;;5035197;28;20033;-87
2023/12/18 03:33:38;;;;;;;9.95;5.22;;;;;;;;;;5046389;28;20513;-86
2023/12/18 03:36:07;;;;;;;8.55;5.88;;;;;;;;;;5055903;28;20033;-88
2023/12/18 03:38:32;;;;;;;6.72;4.68;;;;;;;;;;5037145;28;20024;-86
2023/12/18 03:40:59;;;;;;;10.43;5.38;;;;;;;;;;5055278;28;20067;-87
2023/12/18 03:43:24;;;;;;;7.50;4.65;;;;;;;;;;5056491;28;20033;-87
2023/12/18 03:45:49;;;;;;;7.95;5.03;;;;;;;;;;5056061;28;20380;-87
2023/12/18 03:48:15;;;;;;;10.32;5.40;;;;;;;;;;5056492;28;20055;-88
2023/12/18 03:50:42;;;;;;;8.73;4.35;;;;;;;;;;5057070;28;20025;-87
2023/12/18 03:53:08;;;;;;;6.78;4.43;;;;;;;;;;5066208;28;20029;-86
2023/12/18 03:55:34;;;;;;;8.00;5.07;;;;;;;;;;5054808;28;20025;-86
2023/12/18 03:57:59;;;;;;;11.18;5.28;;;;;;;;;;5058489;28;20082;-86
2023/12/18 04:00:24;;;;;;;6.30;4.13;;;;;;;;;;5042104;28;20016;-86
2023/12/18 04:02:50;;;;;;;9.20;4.68;;;;;;;;;;5055456;28;20488;-86
2023/12/18 04:05:15;;;;;;;8.75;6.07;;;;;;;;;;5063554;28;20084;-87
2023/12/18 04:07:40;;;;;;;7.50;4.88;;;;;;;;;;5036530;28;20093;-88
2023/12/18 04:10:07;;;;;;;6.68;3.78;;;;;;;;;;5054488;28;20107;-88
2023/12/18 04:12:32;;;;;;;6.68;4.63;;;;;;;;;;5054593;28;20017;-88
2023/12/18 04:14:58;;;;;;;4.53;3.58;;;;;;;;;;5053961;28;20041;-88
2023/12/18 04:17:23;;;;;;;7.78;4.15;;;;;;;;;;5054876;28;20029;-88
2023/12/18 04:19:48;;;;;;;5.35;3.63;;;;;;;;;;5036217;28;20036;-87
2023/12/18 04:22:14;;;;;;;7.20;5.03;;;;;;;;;;5042787;28;20040;-89
2023/12/18 04:24:39;;;;;;;4.30;3.35;;;;;;;;;;5053699;28;20029;-87
2023/12/18 04:27:04;;;;;;;8.90;5.15;;;;;;;;;;5035048;28;20044;-87
2023/12/18 04:29:29;;;;;;;3.83;2.78;;;;;;;;;;5053208;28;20053;-87
2023/12/18 04:31:55;;;;;;;9.23;5.72;;;;;;;;;;5058157;28;20041;-88
2023/12/18 04:34:20;;;;;;;7.68;4.50;;;;;;;;;;5064815;28;20032;-88
2023/12/18 04:36:45;;;;;;;3.30;3.00;;;;;;;;;;5059002;28;20029;-87
2023/12/18 04:39:11;;;;;;;5.20;3.78;;;;;;;;;;5035140;28;20478;-86
2023/12/18 04:41:36;;;;;;;7.32;3.92;;;;;;;;;;5051754;28;20017;-87
2023/12/18 04:44:01;;;;;;;6.53;4.25;;;;;;;;;;5048010;28;20146;-88
2023/12/18 04:46:27;;;;;;;5.80;3.95;;;;;;;;;;5051269;28;20025;-88
2023/12/18 04:48:52;;;;;;;4.88;4.38;;;;;;;;;;5032660;28;20034;-87
2023/12/18 04:51:18;;;;;;;6.53;3.20;;;;;;;;;;5058985;28;20403;-87
2023/12/18 04:53:43;;;;;;;7.50;4.90;;;;;;;;;;5057723;28;20029;-88
2023/12/18 04:56:08;;;;;;;6.57;4.38;;;;;;;;;;5057142;28;20025;-87
2023/12/18 04:58:35;;;;;;;5.38;4.07;;;;;;;;;;5058472;28;20016;-88
2023/12/18 05:01:04;;;;;;;6.85;4.30;;;;;;;;;;5039517;28;20025;-88
2023/12/18 05:03:29;;;;;;;6.70;4.63;;;;;;;;;;5063608;28;20048;-87
2023/12/18 05:05:55;;;;;;;3.78;2.85;;;;;;;;;;5040373;28;20024;-87
2023/12/18 05:08:20;;;;;;;4.97;3.83;;;;;;;;;;5058152;28;20088;-86
2023/12/18 05:10:45;;;;;;;6.97;4.20;;;;;;;;;;5056800;28;20039;-87
2023/12/18 05:13:10;;;;;;;5.35;3.80;;;;;;;;;;5038355;28;20028;-89
2023/12/18 05:15:36;;;;;;;7.47;4.53;;;;;;;;;;5055485;28;20029;-87
2023/12/18 05:18:01;;;;;;;6.88;3.90;;;;;;;;;;5057681;28;20025;-87
2023/12/18 05:20:26;;;;;;;7.38;4.25;;;;;;;;;;5057795;28;20024;-87
2023/12/18 05:22:52;;;;;;;13.40;4.93;;;;;;;;;;5057956;28;20056;-88
2023/12/18 05:25:18;;;;;;;4.55;3.65;;;;;;;;;;5058005;28;20372;-88
2023/12/18 05:27:43;;;;;;;6.50;4.68;;;;;;;;;;5040277;28;20021;-87
2023/12/18 05:30:08;;;;;;;5.75;4.10;;;;;;;;;;5056827;28;20021;-87
2023/12/18 05:32:34;;;;;;;4.35;3.60;;;;;;;;;;5056738;28;20036;-87
2023/12/18 05:34:59;;;;;;;5.55;4.43;;;;;;;;;;5050224;28;20021;-87
2023/12/18 05:37:24;;;;;;;3.67;3.20;;;;;;;;;;5058538;28;20390;-87
2023/12/18 05:39:50;;;;;;;4.60;4.15;;;;;;;;;;5048413;28;20051;-87
2023/12/18 05:42:15;;;;;;;7.82;4.60;;;;;;;;;;5066500;28;20021;-87
2023/12/18 05:44:41;;;;;;;6.22;4.60;;;;;;;;;;5068275;28;20025;-87
2023/12/18 05:47:06;;;;;;;6.75;4.15;;;;;;;;;;5052197;28;20032;-88
2023/12/18 05:49:31;;;;;;;5.32;4.38;;;;;;;;;;5063790;28;20379;-88
2023/12/18 05:51:57;;;;;;;7.95;4.43;;;;;;;;;;5063457;28;20074;-88
2023/12/18 05:54:22;;;;;;;4.50;3.42;;;;;;;;;;5062444;28;20027;-88
2023/12/18 05:56:48;;;;;;;6.70;4.28;;;;;;;;;;5045130;28;20488;-88
2023/12/18 05:59:13;;;;;;;7.25;3.75;;;;;;;;;;5054912;28;20023;-88
2023/12/18 06:01:38;;;;;;;8.48;4.38;;;;;;;;;;5054313;28;20021;-88
2023/12/18 06:04:04;;;;;;;5.13;3.95;;;;;;;;;;5078297;28;20029;-88
2023/12/18 06:06:29;;;;;;;8.73;5.55;;;;;;;;;;5061263;28;20020;-88
2023/12/18 06:08:55;;;;;;;7.45;3.58;;;;;;;;;;5059036;28;20395;-88
2023/12/18 06:11:20;;;;;;;11.20;5.15;;;;;;;;;;5059816;28;20025;-88
2023/12/18 06:13:45;;;;;;;11.00;6.00;;;;;;;;;;5052521;28;20024;-88
2023/12/18 06:16:11;;;;;;;7.10;4.57;;;;;;;;;;5058545;28;20021;-88
2023/12/18 06:18:37;;;;;;;4.97;4.10;;;;;;;;;;5050321;28;20013;-88
2023/12/18 06:21:03;;;;;;;7.22;4.93;;;;;;;;;;5049266;28;20127;-88
2023/12/18 06:23:29;;;;;;;5.85;4.00;;;;;;;;;;5046856;28;20046;-88
2023/12/18 06:25:54;;;;;;;2.83;2.55;;;;;;;;;;5057214;28;20090;-88
2023/12/18 06:28:20;;;;;;;5.72;3.78;;;;;;;;;;5056188;28;20036;-88
2023/12/18 06:30:45;;;;;;;4.85;3.65;;;;;;;;;;5038648;28;20021;-88
2023/12/18 06:33:10;;;;;;;4.68;3.33;;;;;;;;;;5039434;28;20535;-88
2023/12/18 06:35:36;;;;;;;4.15;3.63;;;;;;;;;;5037006;28;20115;-88
2023/12/18 06:38:01;;;;;;;7.53;3.78;;;;;;;;;;5065899;28;20055;-86
2023/12/18 06:40:26;;;;;;;5.03;3.55;;;;;;;;;;5040712;28;20566;-88
2023/12/18 06:42:51;;;;;;;6.85;4.78;;;;;;;;;;5040718;28;20032;-88
2023/12/18 06:45:17;;;;;;;5.93;3.72;;;;;;;;;;5040544;28;20029;-88
2023/12/18 06:47:42;;;;;;;5.05;3.72;;;;;;;;;;5040639;28;20043;-88
2023/12/18 06:50:08;;;;;;;7.20;4.95;;;;;;;;;;5056874;28;20030;-88
2023/12/18 06:52:33;;;;;;;7.28;4.72;;;;;;;;;;5038083;28;20036;-88
2023/12/18 06:54:58;;;;;;;9.18;4.97;;;;;;;;;;5053832;28;20113;-89
2023/12/18 06:57:24;;;;;;;9.02;4.30;;;;;;;;;;5055842;28;20025;-88
2023/12/18 06:59:49;;;;;;;4.70;4.00;;;;;;;;;;5056813;28;20104;-88
2023/12/18 07:02:14;;;;;;;4.70;4.18;;;;;;;;;;5047918;28;20144;-88
2023/12/18 07:04:40;;;;;;;3.90;3.55;;;;;;;;;;5061235;28;20032;-88
2023/12/18 07:07:05;;;;;;;8.50;3.80;;;;;;;;;;5054413;28;20032;-89
2023/12/18 07:09:30;;;;;;;5.22;4.10;;;;;;;;;;5041302;28;20032;-87
2023/12/18 07:11:56;;;;;;;7.88;3.50;;;;;;;;;;5062096;28;20033;-88
2023/12/18 07:14:21;;;;;;;4.55;3.15;;;;;;;;;;5057239;28;20522;-86
2023/12/18 07:16:46;;;;;;;6.30;3.75;;;;;;;;;;5065016;28;20021;-86
2023/12/18 07:19:13;;;;;;;4.10;3.22;;;;;;;;;;5055785;28;20031;-87
2023/12/18 07:21:38;;;;;;;6.60;3.63;;;;;;;;;;5054612;28;20231;-87
2023/12/18 07:24:04;;;;;;;8.73;4.40;;;;;;;;;;5052980;28;20043;-86
2023/12/18 07:26:30;;;;;;;7.60;4.45;;;;;;;;;;5054749;28;20032;-86
2023/12/18 07:28:55;;;;;;;8.68;3.97;;;;;;;;;;5055642;28;20017;-86
2023/12/18 07:31:20;;;;;;;11.93;3.67;;;;;;;;;;5055613;28;20029;-86
2023/12/18 07:33:46;;;;;;;7.80;4.70;;;;;;;;;;5047874;28;20470;-85
2023/12/18 07:36:11;;;;;;;6.25;4.60;;;;;;;;;;5057396;28;20140;-87
2023/12/18 07:38:36;;;;;;;6.60;4.82;;;;;;;;;;5059275;28;20044;-87
2023/12/18 07:41:03;;;;;;;5.53;5.03;;;;;;;;;;5067070;28;20036;-85
2023/12/18 07:43:28;;;;;;;10.95;4.30;;;;;;;;;;5037708;28;20032;-85
2023/12/18 07:45:53;;;;;;;6.78;3.60;;;;;;;;;;5041959;28;20020;-85
2023/12/18 07:48:21;;;;;;;7.45;4.05;;;;;;;;;;5049246;28;20150;-85
2023/12/18 07:50:47;;;;;;;4.35;3.95;;;;;;;;;;5057988;28;20025;-85
2023/12/18 07:53:12;;;;;;;8.85;3.83;;;;;;;;;;5065426;28;20024;-85
2023/12/18 07:55:39;;;;;;;7.15;3.88;;;;;;;;;;5062963;28;20021;-86
2023/12/18 07:58:04;;;;;;;9.10;3.72;;;;;;;;;;5039929;28;20036;-87
2023/12/18 08:00:29;;;;;;;7.57;3.67;;;;;;;;;;5039729;28;20021;-87
2023/12/18 08:02:54;;;;;;;6.45;4.15;;;;;;;;;;5055195;28;20454;-88
2023/12/18 08:05:20;;;;;;;6.38;4.68;;;;;;;;;;5055726;28;20025;-88
2023/12/18 08:07:46;;;;;;;6.82;4.35;;;;;;;;;;5044949;28;20120;-86
2023/12/18 08:10:12;;;;;;;8.43;4.32;;;;;;;;;;5037023;28;20055;-87
2023/12/18 08:12:38;;;;;;;5.50;4.35;;;;;;;;;;5037414;28;20478;-87
2023/12/18 08:15:04;;;;;;;9.55;5.43;;;;;;;;;;5043427;28;20032;-88
2023/12/18 08:17:37;;;;;;;6.78;4.90;;;;;;;;;;5045308;28;20051;-88
2023/12/18 08:20:02;;;;;;;5.30;4.72;;;;;;;;;;5034942;28;20467;-87
2023/12/18 08:22:27;;;;;;;7.63;5.18;;;;;;;;;;5035278;28;20185;-88
2023/12/18 08:24:53;;;;;;;6.40;4.10;;;;;;;;;;5059666;28;20032;-87
2023/12/18 08:27:18;;;;;;;5.68;4.50;;;;;;;;;;5059859;28;20035;-88
2023/12/18 08:29:43;;;;;;;9.05;4.95;;;;;;;;;;5041789;28;20029;-86
2023/12/18 08:32:09;;;;;;;7.07;4.97;;;;;;;;;;5041390;28;20040;-89
2023/12/18 08:34:34;;;;;;;7.93;4.43;;;;;;;;;;5059239;28;20032;-88
2023/12/18 08:36:59;;;;;;;7.78;4.45;;;;;;;;;;5059618;28;20076;-89
2023/12/18 08:39:25;;;;;;;8.73;5.00;;;;;;;;;;5058932;28;20092;-88
2023/12/18 08:41:50;;;;;;;5.93;4.43;;;;;;;;;;5041264;28;20025;-88
2023/12/18 08:44:16;;;;;;;8.35;5.00;;;;;;;;;;5040763;28;20070;-86
2023/12/18 08:46:41;;;;;;;5.53;4.40;;;;;;;;;;5042751;28;20458;-87
2023/12/18 08:49:06;;;;;;;7.85;5.57;;;;;;;;;;5041614;28;20021;-88
2023/12/18 08:51:31;;;;;;;6.65;4.82;;;;;;;;;;5058350;28;20059;-87
2023/12/18 08:53:57;;;;;;;6.95;4.68;;;;;;;;;;5058358;28;20025;-86
2023/12/18 08:56:24;;;;;;;10.13;5.75;;;;;;;;;;5057958;28;20025;-89
2023/12/18 08:58:52;;;;;;;8.73;4.28;;;;;;;;;;5055434;28;20029;-87
2023/12/18 09:01:18;;;;;;;6.57;4.75;;;;;;;;;;5037566;28;20028;-91
2023/12/18 09:03:43;;;;;;;8.90;4.93;;;;;;;;;;5059235;28;20115;-87
2023/12/18 09:06:08;;;;;;;8.50;4.05;;;;;;;;;;5040335;28;20028;-87
2023/12/18 09:08:39;;;;;;;8.15;5.15;;;;;;;;;;5043087;28;20024;-87
2023/12/18 09:11:08;;;;;;;7.03;4.72;;;;;;;;;;5043036;28;20055;-89
2023/12/18 09:13:37;;;;;;;7.57;4.22;;;;;;;;;;5056132;28;20032;-86
2023/12/18 09:16:04;;;;;;;7.53;4.28;;;;;;;;;;5054199;28;20060;-91
2023/12/18 09:18:30;;;;;;;8.18;4.97;;;;;;;;;;5058263;28;20170;-88
2023/12/18 09:20:56;;;;;;;6.78;4.85;;;;;;;;;;5056433;28;20513;-89
2023/12/18 09:23:21;;;;;;;8.43;6.00;;;;;;;;;;5057272;28;20077;-91
2023/12/18 09:25:46;;;;;;;7.97;5.20;;;;;;;;;;5054824;28;20409;-87
2023/12/18 09:28:12;;;;;;;6.80;5.07;;;;;;;;;;5056108;28;20029;-89
2023/12/18 09:30:38;;;;;;;6.13;4.38;;;;;;;;;;5055841;28;20036;-88
2023/12/18 09:33:04;;;;;;;9.13;5.22;;;;;;;;;;5058319;28;20017;-86
2023/12/18 09:35:29;;;;;;;7.00;4.90;;;;;;;;;;5055640;28;20391;-88
2023/12/18 09:37:55;;;;;;;9.57;5.63;;;;;;;;;;5055829;28;20801;-91
2023/12/18 09:40:20;;;;;;;9.95;4.90;;;;;;;;;;5061405;28;20047;-93
2023/12/18 09:42:53;;;;;;;7.63;5.47;;;;;;;;;;5057900;28;20025;-88
2023/12/18 09:45:22;;;;;;;8.05;4.93;;;;;;;;;;5042356;28;20086;-86
2023/12/18 09:47:48;;;;;;;7.57;4.93;;;;;;;;;;5037743;28;20025;-89
2023/12/18 09:50:14;;;;;;;7.20;5.25;;;;;;;;;;5039433;28;20021;-89
2023/12/18 09:52:45;;;;;;;9.90;5.47;;;;;;;;;;5053659;28;20021;-86
2023/12/18 09:55:11;;;;;;;13.77;5.32;;;;;;;;;;5058933;28;21247;-86
2023/12/18 09:57:37;;;;;;;9.07;5.97;;;;;;;;;;5055547;28;20033;-90
2023/12/18 10:00:03;;;;;;;8.27;4.63;;;;;;;;;;5041895;28;20028;-88
2023/12/18 10:02:29;;;;;;;18.88;6.13;;;;;;;;;;5059771;28;20105;-87
2023/12/18 10:04:55;;;;;;;11.23;6.28;;;;;;;;;;5037515;28;20128;-87
2023/12/18 10:07:20;;;;;;;6.68;4.90;;;;;;;;;;5038577;28;20710;-88
2023/12/18 10:09:48;;;;;;;7.93;5.05;;;;;;;;;;5054909;28;20558;-88
2023/12/18 10:12:17;;;;;;;11.57;5.93;;;;;;;;;;5055344;28;20529;-87
2023/12/18 10:14:42;;;;;;;7.38;4.63;;;;;;;;;;5060471;28;20040;-89
2023/12/18 10:17:08;;;;;;;8.68;4.72;;;;;;;;;;5060325;28;20021;-88
2023/12/18 10:19:33;;;;;;;11.98;4.05;;;;;;;;;;5062458;28;20024;-88
2023/12/18 10:21:59;;;;;;;6.78;4.80;;;;;;;;;;5044545;28;20013;-86
2023/12/18 10:24:25;;;;;;;11.57;5.53;;;;;;;;;;5056398;28;20048;-88
2023/12/18 10:26:51;;;;;;;9.55;4.70;;;;;;;;;;5039410;28;20016;-89
2023/12/18 10:29:17;;;;;;;4.90;3.95;;;;;;;;;;5055904;28;20033;-86
2023/12/18 10:31:43;;;;;;;8.32;4.85;;;;;;;;;;5060676;28;20028;-87
2023/12/18 10:34:09;;;;;;;5.55;3.83;;;;;;;;;;5054662;28;20521;-86
2023/12/18 10:36:39;;;;;;;5.00;4.05;;;;;;;;;;5057043;28;20112;-89
2023/12/18 10:39:09;;;;;;;5.80;4.45;;;;;;;;;;5041918;28;20104;-87
2023/12/18 10:41:40;;;;;;;5.25;3.80;;;;;;;;;;5053839;28;20059;-86
2023/12/18 10:44:07;;;;;;;7.65;4.50;;;;;;;;;;5042379;28;20068;-88
2023/12/18 10:46:34;;;;;;;6.78;4.13;;;;;;;;;;5060408;28;20048;-88
2023/12/18 10:49:02;;;;;;;6.53;4.05;;;;;;;;;;5057292;28;20036;-87
2023/12/18 10:51:33;;;;;;;5.10;3.50;;;;;;;;;;5045065;28;20097;-88
2023/12/18 10:53:59;;;;;;;7.97;4.05;;;;;;;;;;5065864;28;20032;-87
2023/12/18 10:56:26;;;;;;;7.15;4.68;;;;;;;;;;5039536;28;20124;-88
2023/12/18 10:58:56;;;;;;;7.70;4.55;;;;;;;;;;5042773;28;20028;-90
2023/12/18 11:01:24;;;;;;;7.88;3.78;;;;;;;;;;5050753;28;20013;-87
2023/12/18 11:03:50;;;;;;;6.43;3.80;;;;;;;;;;5033571;28;20021;-86
2023/12/18 11:06:17;;;;;;;5.43;3.83;;;;;;;;;;5036816;28;20040;-86
2023/12/18 11:08:43;;;;;;;11.13;4.70;;;;;;;;;;5055621;28;20032;-87
2023/12/18 11:11:10;;;;;;;7.72;3.80;;;;;;;;;;5056097;28;20089;-88
2023/12/18 11:13:49;;;;;;;5.75;4.07;;;;;;;;;;5058539;28;20025;-87
2023/12/18 11:16:41;;;;;;;5.45;3.60;;;;;;;;;;5056222;28;20495;-89
2023/12/18 11:19:18;;;;;;;5.88;3.97;;;;;;;;;;5056266;28;20056;-88
2023/12/18 11:21:47;;;;;;;6.70;4.07;;;;;;;;;;5056212;28;20116;-87
2023/12/18 11:24:13;;;;;;;5.20;3.67;;;;;;;;;;5055202;28;20429;-88
2023/12/18 11:26:39;;;;;;;12.80;4.72;;;;;;;;;;5056922;28;20467;-87
2023/12/18 11:29:39;;;;;;;7.72;4.32;;;;;;;;;;5046609;28;20033;-88
2023/12/18 11:32:05;;;;;;;6.85;4.25;;;;;;;;;;5042271;28;20039;-88
2023/12/18 11:34:31;;;;;;;11.07;4.53;;;;;;;;;;5049166;28;20020;-87
2023/12/18 11:36:58;;;;;;;7.07;4.28;;;;;;;;;;5055414;28;20083;-88
2023/12/18 11:39:36;;;;;;;8.02;4.03;;;;;;;;;;5055591;28;20043;-89
2023/12/18 11:42:01;;;;;;;10.10;5.57;;;;;;;;;;5056704;28;20017;-87
2023/12/18 11:44:27;;;;;;;6.57;4.15;;;;;;;;;;5047912;28;20024;-87
2023/12/18 11:46:53;;;;;;;9.23;4.22;;;;;;;;;;5042966;28;20050;-87
2023/12/18 11:49:19;;;;;;;7.60;4.00;;;;;;;;;;5046925;28;20100;-89
2023/12/18 11:51:44;;;;;;;5.57;3.72;;;;;;;;;;5067394;28;20118;-87
2023/12/18 11:54:17;;;;;;;9.65;4.38;;;;;;;;;;5050990;28;20032;-88
2023/12/18 11:56:43;;;;;;;7.57;4.13;;;;;;;;;;5049587;28;20028;-90
2023/12/18 11:59:09;;;;;;;5.75;4.15;;;;;;;;;;5056109;28;20033;-88
2023/12/18 12:01:36;;;;;;;5.90;4.20;;;;;;;;;;5039376;28;20032;-88
2023/12/18 12:04:01;;;;;;;6.55;4.93;;;;;;;;;;5051907;28;20028;-89
2023/12/18 12:06:27;;;;;;;7.65;4.97;;;;;;;;;;5051847;28;20023;-88
2023/12/18 12:08:52;;;;;;;8.45;4.60;;;;;;;;;;5051799;28;20441;-88
2023/12/18 12:11:19;;;;;;;9.23;5.32;;;;;;;;;;5052021;28;20025;-87
2023/12/18 12:13:47;;;;;;;6.68;4.95;;;;;;;;;;5034670;28;20557;-88
2023/12/18 12:16:17;;;;;;;11.65;4.93;;;;;;;;;;5037674;28;20025;-88
2023/12/18 12:18:54;;;;;;;7.88;4.75;;;;;;;;;;5036335;28;20028;-87
2023/12/18 12:21:19;;;;;;;8.02;4.85;;;;;;;;;;5054124;28;20028;-89
2023/12/18 12:23:47;;;;;;;5.57;4.40;;;;;;;;;;5054377;28;20029;-89
2023/12/18 12:26:13;;;;;;;5.40;4.13;;;;;;;;;;5043013;28;20055;-89
2023/12/18 12:28:40;;;;;;;6.50;4.72;;;;;;;;;;5044778;28;20025;-88
2023/12/18 12:31:05;;;;;;;9.25;4.43;;;;;;;;;;5057223;28;20032;-88
2023/12/18 12:33:44;;;;;;;7.07;5.00;;;;;;;;;;5056105;28;20491;-88
2023/12/18 12:36:10;;;;;;;8.32;4.80;;;;;;;;;;5053998;28;20028;-88
2023/12/18 12:38:43;;;;;;;7.50;3.70;;;;;;;;;;5054685;28;20033;-88
2023/12/18 12:41:09;;;;;;;7.28;4.68;;;;;;;;;;5053558;28;20028;-88
2023/12/18 12:43:35;;;;;;;7.82;4.45;;;;;;;;;;5052700;28;20033;-87
2023/12/18 12:46:00;;;;;;;11.05;4.18;;;;;;;;;;5054845;28;20084;-87
2023/12/18 12:48:25;;;;;;;7.70;4.90;;;;;;;;;;5057130;28;20029;-87
2023/12/18 12:50:51;;;;;;;12.27;5.53;;;;;;;;;;5055327;28;20017;-87
2023/12/18 12:53:17;;;;;;;7.18;4.55;;;;;;;;;;5052717;28;20025;-86
2023/12/18 12:55:43;;;;;;;8.65;4.88;;;;;;;;;;5070516;28;20081;-88
2023/12/18 12:58:09;;;;;;;7.68;4.75;;;;;;;;;;5048619;28;20029;-86
2023/12/18 13:00:35;;;;;;;5.75;4.30;;;;;;;;;;5053566;28;20083;-86
2023/12/18 13:03:01;;;;;;;6.97;4.20;;;;;;;;;;5041691;28;20052;-87
2023/12/18 13:05:27;;;;;;;5.53;3.92;;;;;;;;;;5048318;28;20145;-87
2023/12/18 13:07:55;;;;;;;8.43;4.15;;;;;;;;;;5059073;28;20013;-87
2023/12/18 13:10:26;;;;;;;7.25;4.15;;;;;;;;;;5052642;28;20032;-86
2023/12/18 13:12:53;;;;;;;8.88;4.03;;;;;;;;;;5047841;28;20044;-86
2023/12/18 13:15:18;;;;;;;5.95;4.22;;;;;;;;;;5054434;28;20032;-87
2023/12/18 13:18:17;;;;;;;10.05;4.53;;;;;;;;;;5055242;28;20048;-87
2023/12/18 13:20:44;;;;;;;7.45;4.40;;;;;;;;;;5070386;28;20027;-88
2023/12/18 13:23:09;;;;;;;6.88;3.90;;;;;;;;;;5055856;28;20071;-86
2023/12/18 13:25:34;;;;;;;7.47;4.45;;;;;;;;;;5055001;28;20033;-87
2023/12/18 13:28:00;;;;;;;6.45;3.90;;;;;;;;;;5052759;28;20132;-87
2023/12/18 13:30:25;;;;;;;7.47;4.43;;;;;;;;;;5052859;28;20044;-87
2023/12/18 13:32:50;;;;;;;6.95;4.18;;;;;;;;;;5055939;28;20474;-87
2023/12/18 13:35:16;;;;;;;6.07;4.50;;;;;;;;;;5057512;28;20033;-88
2023/12/18 13:37:41;;;;;;;6.45;4.15;;;;;;;;;;5056666;28;20033;-88
2023/12/18 13:40:08;;;;;;;7.05;4.60;;;;;;;;;;5056341;28;20045;-90
2023/12/18 13:42:39;;;;;;;8.38;4.65;;;;;;;;;;5055620;28;20098;-88
2023/12/18 13:45:04;;;;;;;9.68;4.60;;;;;;;;;;5042145;28;20171;-88
2023/12/18 13:47:30;;;;;;;18.10;4.53;;;;;;;;;;5046482;28;20048;-88
2023/12/18 13:49:56;;;;;;;7.10;4.55;;;;;;;;;;5055501;28;20419;-88
2023/12/18 13:52:21;;;;;;;4.97;3.72;;;;;;;;;;5041763;28;20098;-89
2023/12/18 13:54:48;;;;;;;7.45;4.32;;;;;;;;;;5052626;28;20024;-88
2023/12/18 13:57:14;;;;;;;6.15;4.05;;;;;;;;;;5038753;28;20021;-88
2023/12/18 13:59:40;;;;;;;6.60;4.43;;;;;;;;;;5058697;28;20043;-89
2023/12/18 14:02:05;;;;;;;6.28;3.72;;;;;;;;;;5039705;28;20294;-88
2023/12/18 14:04:30;;;;;;;7.03;5.32;;;;;;;;;;5040708;28;20025;-88
2023/12/18 14:06:56;;;;;;;6.13;4.15;;;;;;;;;;5041231;28;20036;-88
2023/12/18 14:09:24;;;;;;;10.18;5.20;;;;;;;;;;5062897;28;20025;-88
2023/12/18 14:11:49;;;;;;;6.93;4.68;;;;;;;;;;5043915;28;20017;-87
2023/12/18 14:14:17;;;;;;;5.57;4.07;;;;;;;;;;5058225;28;20494;-89
2023/12/18 14:16:43;;;;;;;11.25;4.65;;;;;;;;;;5042257;28;20048;-88
2023/12/18 14:19:08;;;;;;;6.13;4.13;;;;;;;;;;5053612;28;20025;-88
2023/12/18 14:21:33;;;;;;;7.05;4.43;;;;;;;;;;5052284;28;20025;-87
2023/12/18 14:23:59;;;;;;;6.32;4.80;;;;;;;;;;5053393;28;20021;-87
2023/12/18 14:26:24;;;;;;;8.18;4.70;;;;;;;;;;5053310;28;20013;-87
2023/12/18 14:28:50;;;;;;;7.00;5.43;;;;;;;;;;5041097;28;20025;-86
2023/12/18 14:31:15;;;;;;;6.53;4.03;;;;;;;;;;5053249;28;20475;-87
2023/12/18 14:33:41;;;;;;;8.95;5.07;;;;;;;;;;5055022;28;20032;-87